Terminal Aerodrome Forecast
Issued by NWS Twin Cities, MN

Home | Current Version | Previous Version | Graphics & Text | Print | Product List | Glossary On
Versions: 1 2 3 4 5 6 7 8 9 10 11 12 13 14 15 16 17 18 19 20 21 22 23 24 25 26 27 28
000
FTUS43 KMPX 212000 AAA
TAFMSP
TAF AMD
KMSP 212049Z 2121/2224 15009KT 2SM -RA BR OVC005
     FM220100 15013KT 1 1/2SM BR OVC004
     FM220900 14014KT 1SM -DZ BR OVC003
     FM221500 13013KT 1 1/2SM -RA OVC005
     FM222100 11012KT 2SM -RASN OVC007=

USA.gov is the U.S. government's official web portal to all federal, state and local government web resources and services.